Startpagina
METAR-TAF:

METAR-TAF

Vliegvelden :

Lima, Peru

Aeropuerto Internacional Jorge Chávez

breedte: 12-00S, lengte: 077-07W, hoogte: 12 m

Actueel weer

Dit bericht is 12 minuten geleden gemaakt, om 21:00 UTC
Wind 14 kt uit het zuiden
Temperatuur 18°C
Vochtigheid 77%
Druk 1013 hPa
Zicht 10 km of meer
Weinig wolken op 1300 ft

METAR: SPJC 242100Z 18014KT 9999 FEW013 18/14 Q1013 NOSIG RMK PP000

Tijdstip: 16:12 (21:12 UTC)

Verwachting

Dit bericht is 4 uur en het 12 minuten geleden gemaakt, om 17:00 UTC
Verwachting geldig van 24 om 18 UTC tot 25 om 18 UTC
Wind 10 kt uit het westzuidwesten
Zicht 10 km of meer
geen wolken onder 1500 m en geen cumulonimbus
Van 25 om 0000 UTC
Wind 6 kt uit het zuiden
Zicht 10 km of meer
Gebroken wolken op 1200 ft
Wijzigt naar
van 25 om 07 UTC tot 25 om 09 UTC
Zicht: 6000 m
Geheel bewolkt op 800 ft

TAF: SPJC 241700Z 2418/2518 24010KT CAVOK TX18/2419Z TN15/2511Z FM250000 18006KT 9999 BKN012 BECMG 2507/2509 6000 OVC008

Waarnemingen en weersverwachtingen van meer dan 4000 vliegvelden (METAR en TAF).

De beschikbare stations zijn de gele en rode punten op de kaart.

Ga met uw muis naar het station om de naam te zien.

Klik dan om waarnemingen en weersverwachtingen te zien.

kaart wijzigen: klik op de groene knoppen met een zwart kruis om in te zoomen, op de groene knop met een streepje om uit te zoomen of op de groene pijlen voor aangrenzende kaarten.


METAR-TAF: